Latest Weather Observations for Scotts Peak

IDT60801

Issued at 2:41 am EST Friday 19 August 2022 (issued every 10 minutes, with the page automatically refreshed every 10 minutes)

About weather observations | Map of weather stations | Latest weather observations for TAS | Other Formats
Station Details ID: 097083 Name: SCOTTS PEAK DAM Lat: -43.04 Lon: 146.27 Height: 408.0 m
Data from the previous 72 hours. | See also: Recent months at Scotts Peak
Date/Time
EST
Temp
°C
App
Temp
°C
Dew
Point
°C
Rel
Hum
%
Delta-T
°C
Wind Press
QNH
hPa
Press
MSL
hPa
Rain since
9am
mm
Dir  Spd
km/h
Gust
km/h
Spd
kts
Gust
kts
19/02:32am 4.7 -4.8 4.1 96 0.3 NW 43 61 23 33 - - 22.2
19/02:30am 4.7 -4.7 4.3 97 0.2 NW 43 54 23 29 - - 22.0
19/02:00am 4.4 -3.2 4.0 97 0.2 NW 33 46 18 25 - - 22.0
19/01:30am 4.3 -2.7 3.9 97 0.2 NW 30 41 16 22 - - 21.2
19/01:26am 4.3 -3.3 3.9 97 0.2 NW 33 52 18 28 - - 21.2
19/01:00am 4.7 -4.8 4.1 96 0.3 NW 43 52 23 28 - - 21.0
19/12:30am 4.2 -4.2 3.6 96 0.3 NW 37 46 20 25 - - 20.8
19/12:10am 4.8 -2.7 4.2 96 0.3 NW 33 52 18 28 - - 20.4
19/12:00am 4.6 -3.7 4.0 96 0.3 NW 37 50 20 27 - - 20.4
 
Date/Time
EST
Temp
°C
App
Temp
°C
Dew
Point
°C
Rel
Hum
%
Delta-T
°C
Wind Press
QNH
hPa
Press
MSL
hPa
Rain since
9am
mm
Dir  Spd
km/h
Gust
km/h
Spd
kts
Gust
kts
18/11:30pm 4.6 -4.1 4.0 96 0.3 NW 39 48 21 26 - - 20.0
18/11:00pm 4.7 -2.9 4.1 96 0.3 NW 33 46 18 25 - - 19.6
18/10:30pm 5.6 -3.9 4.1 90 0.7 NW 43 54 23 29 - - 19.2
18/10:07pm 5.5 -6.5 3.8 89 0.7 NW 56 74 30 40 - - 19.2
18/10:00pm 5.3 -6.7 3.8 90 0.6 NW 56 69 30 37 - - 19.2
18/09:38pm 5.3 -4.1 4.3 93 0.4 NW 43 65 23 35 - - 19.2
18/09:30pm 5.4 -4.2 4.4 93 0.4 NW 44 56 24 30 - - 19.2
18/09:00pm 5.5 -5.2 4.8 95 0.3 NW 50 70 27 38 - - 19.2
18/08:51pm 5.3 -4.3 4.6 95 0.3 NW 44 63 24 34 - - 19.2
18/08:30pm 5.2 -4.8 4.5 95 0.3 NW 46 57 25 31 - - 19.0
18/08:26pm 5.2 -5.1 4.6 96 0.3 NW 48 67 26 36 - - 19.0
18/08:00pm 5.3 -5.4 4.4 94 0.4 NW 50 65 27 35 - - 19.0
18/07:33pm 5.6 -4.3 4.6 93 0.4 WNW 46 65 25 35 - - 18.8
18/07:30pm 5.5 -5.2 4.6 94 0.4 NW 50 65 27 35 - - 18.8
18/07:15pm 5.4 -6.0 4.7 95 0.3 NW 54 72 29 39 - - 18.8
18/07:00pm 5.1 -6.0 4.5 96 0.3 NW 52 63 28 34 - - 18.8
18/06:35pm 5.2 -5.8 4.8 97 0.2 NW 52 70 28 38 - - 18.8
18/06:30pm 5.2 -5.8 4.8 97 0.2 NW 52 65 28 35 - - 18.8
18/06:00pm 5.2 -5.5 4.8 97 0.2 NW 50 70 27 38 - - 18.4
18/05:50pm 5.0 -5.7 4.6 97 0.2 NW 50 69 27 37 - - 18.4
18/05:30pm 5.3 -6.7 4.9 97 0.2 NW 57 70 31 38 - - 18.0
18/05:03pm 5.4 -8.1 5.0 97 0.2 NW 65 83 35 45 - - 18.0
18/05:00pm 5.4 -8.8 5.0 97 0.2 NW 69 83 37 45 - - 18.0
18/04:30pm 6.0 -8.3 5.6 97 0.2 NW 70 93 38 50 - - 17.8
18/04:27pm 6.0 -8.1 5.6 97 0.2 NW 69 93 37 50 - - 17.8
18/04:22pm 6.2 -7.9 5.8 97 0.2 NW 69 89 37 48 - - 17.8
18/04:00pm 6.5 -10.2 5.9 96 0.3 NW 83 107 45 58 - - 17.8
18/03:48pm 6.8 -10.6 6.2 96 0.3 NW 87 117 47 63 - - 17.6
18/03:30pm 7.3 -7.9 6.7 96 0.3 NW 76 98 41 53 - - 17.6
18/03:12pm 7.8 -5.9 7.4 97 0.2 NW 69 102 37 55 - - 17.6
18/03:00pm 7.9 -3.9 7.6 98 0.1 NNW 59 78 32 42 - - 16.8
18/02:59pm 7.9 -3.9 7.6 98 0.1 NNW 59 78 32 42 - - 16.8
18/02:52pm 7.8 -4.7 7.5 98 0.1 NNW 63 83 34 45 - - 16.6
18/02:32pm 7.5 -2.6 7.2 98 0.1 NNW 50 95 27 51 - - 16.2
18/02:30pm 7.5 -3.0 7.2 98 0.1 NNW 52 76 28 41 - - 15.8
18/02:21pm 7.4 -4.9 7.0 97 0.2 NNW 61 100 33 54 - - 15.4
18/02:20pm 7.3 -5.0 6.9 97 0.2 NNW 61 100 33 54 - - 15.4
18/02:00pm 7.6 -6.2 7.2 97 0.2 NNW 69 98 37 53 - - 14.2
18/01:35pm 8.0 -3.8 7.6 97 0.2 NNW 59 96 32 52 - - 13.2
18/01:31pm 8.1 -2.3 7.8 98 0.1 NNW 52 87 28 47 - - 13.2
18/01:30pm 8.1 -1.9 7.8 98 0.1 NNW 50 65 27 35 - - 13.0
18/01:03pm 8.6 -0.6 8.2 97 0.2 NNW 46 65 25 35 - - 11.0
18/01:00pm 8.7 -1.2 8.3 97 0.2 NNW 50 65 27 35 - - 10.8
18/12:40pm 9.2 1.2 8.9 98 0.2 NNW 41 59 22 32 - - 10.8
18/12:30pm 9.0 1.3 8.7 98 0.1 NW 39 54 21 29 - - 10.6
18/12:01pm 8.5 -1.4 8.2 98 0.1 NNW 50 69 27 37 - - 10.6
18/12:00pm 8.6 -1.7 8.3 98 0.1 NNW 52 69 28 37 - - 10.6
18/11:54am 8.4 -2.3 8.1 98 0.1 NNW 54 72 29 39 - - 10.6
18/11:38am 8.5 -5.0 8.2 98 0.1 NNW 69 89 37 48 - - 9.8
18/11:30am 8.7 -5.7 8.4 98 0.1 NNW 74 109 40 59 - - 9.0
18/11:25am 8.8 -4.2 8.7 99 0.0 NNW 67 109 36 59 - - 8.6
18/11:19am 8.9 -0.9 8.8 99 0.0 NNW 50 82 27 44 - - 8.0
18/11:18am 8.9 -0.5 8.8 99 0.0 NNW 48 67 26 36 - - 8.0
18/11:11am 8.9 2.4 8.8 99 0.0 NNW 33 52 18 28 - - 7.6
18/11:00am 8.8 4.3 8.5 98 0.1 NNW 22 35 12 19 - - 7.0
18/10:30am 9.2 5.4 8.9 98 0.2 NNW 19 24 10 13 - - 4.6
18/10:00am 8.9 5.0 8.8 99 0.0 N 19 28 10 15 - - 2.8
18/09:30am 9.0 2.7 8.9 99 0.1 NNW 32 44 17 24 - - 0.8
18/09:00am 8.6 2.1 8.3 98 0.1 NNW 32 39 17 21 - - 8.6
18/08:30am 8.7 1.7 8.4 98 0.1 NNW 35 44 19 24 - - 7.8
18/08:00am 8.6 0.8 8.3 98 0.1 NNW 39 46 21 25 - - 7.4
18/07:30am 8.5 -1.0 8.2 98 0.1 NNW 48 57 26 31 - - 6.0
18/07:00am 8.5 0.7 8.2 98 0.1 NNW 39 43 21 23 - - 5.0
18/06:30am 8.4 0.6 8.1 98 0.1 NNW 39 46 21 25 - - 4.4
18/06:00am 8.3 0.4 8.0 98 0.1 NNW 39 50 21 27 - - 4.0
18/05:30am 8.3 -0.4 7.9 97 0.2 NNW 43 52 23 28 - - 3.4
18/05:00am 8.2 -0.1 7.8 97 0.2 NNW 41 46 22 25 - - 2.8
18/04:30am 8.2 -0.5 7.6 96 0.3 NNW 43 52 23 28 - - 2.8
18/04:00am 8.2 0.2 7.3 94 0.4 NNW 39 46 21 25 - - 2.6
18/03:30am 8.0 1.3 7.2 95 0.4 NNW 32 41 17 22 - - 2.6
18/03:00am 7.9 1.2 7.3 96 0.3 NNW 32 41 17 22 - - 2.6
18/02:30am 7.9 -0.9 7.3 96 0.3 NNW 43 54 23 29 - - 2.6
18/02:00am 8.1 0.5 7.5 96 0.3 NNW 37 48 20 26 - - 2.2
18/01:30am 8.1 -0.6 7.7 97 0.2 NNW 43 54 23 29 - - 2.0
18/01:00am 8.1 -0.8 7.5 96 0.3 NNW 44 57 24 31 - - 1.6
18/12:30am 8.0 -1.4 7.2 95 0.4 NNW 46 61 25 33 - - 1.2
18/12:20am 8.2 -0.8 7.3 94 0.4 N 44 63 24 34 - - 1.0
18/12:00am 8.3 -1.1 7.1 92 0.6 NNW 46 56 25 30 - - 0.8
 
Date/Time
EST
Temp
°C
App
Temp
°C
Dew
Point
°C
Rel
Hum
%
Delta-T
°C
Wind Press
QNH
hPa
Press
MSL
hPa
Rain since
9am
mm
Dir  Spd
km/h
Gust
km/h
Spd
kts
Gust
kts
17/11:36pm 8.1 -0.8 7.0 93 0.5 NNW 43 63 23 34 - - 0.6
17/11:30pm 8.1 -0.8 7.0 93 0.5 NNW 43 54 23 29 - - 0.6
17/11:00pm 8.0 -0.5 7.1 94 0.4 N 41 54 22 29 - - 0.6
17/10:30pm 8.0 -0.8 7.1 94 0.4 NNW 43 52 23 28 - - 0.4
17/10:00pm 8.1 -0.4 7.0 93 0.5 NNW 41 57 22 31 - - 0.2
17/09:30pm 8.4 -1.0 7.3 93 0.5 NNW 46 61 25 33 - - 0.2
17/09:18pm 8.8 -1.0 7.1 89 0.8 NNW 48 67 26 36 - - 0.0
17/09:00pm 9.2 -3.1 6.8 85 1.1 NNW 61 83 33 45 - - 0.0
17/08:30pm 9.9 -0.3 5.3 73 2.1 NNW 48 70 26 38 - - 0.0
17/08:27pm 9.8 0.5 4.8 71 2.3 NNW 43 63 23 34 - - 0.0
17/08:00pm 10.0 0.9 4.2 67 2.6 NNW 41 54 22 29 - - 0.0
17/07:30pm 10.7 0.5 3.3 60 3.3 N 46 69 25 37 - - 0.0
17/07:03pm 10.6 0.8 2.4 57 3.6 N 43 74 23 40 - - 0.0
17/07:00pm 10.2 1.6 2.6 59 3.3 N 37 56 20 30 - - 0.0
17/06:53pm 9.7 2.8 2.8 62 3.0 N 28 52 15 28 - - 0.0
17/06:30pm 9.1 1.7 4.1 71 2.2 NNW 32 41 17 22 - - 0.0
17/06:00pm 9.5 2.2 4.5 71 2.3 NNW 32 41 17 22 - - 0.0
17/05:30pm 9.6 3.8 4.6 71 2.3 N 24 32 13 17 - - 0.0
17/05:00pm 9.4 5.1 5.4 76 1.9 N 17 20 9 11 - - 0.0
17/04:30pm 9.5 5.7 5.9 78 1.7 N 15 19 8 10 - - 0.0
17/04:00pm 10.0 5.2 5.4 73 2.1 N 20 28 11 15 - - 0.0
17/03:30pm 10.6 8.1 6.7 77 1.9 NNW 9 15 5 8 - - 0.0
17/03:00pm 11.4 9.0 7.1 75 2.1 NNW 9 13 5 7 - - 0.0
17/02:30pm 13.3 11.6 8.4 72 2.5 NW 7 9 4 5 - - 0.0
17/02:00pm 12.5 9.9 5.9 64 3.2 N 9 13 5 7 - - 0.0
17/01:30pm 11.9 9.5 8.7 81 1.6 NNW 11 15 6 8 - - 0.0
17/01:00pm 12.3 8.5 9.1 81 1.6 N 19 24 10 13 - - 0.0
17/12:30pm 10.1 7.6 8.2 88 0.9 N 11 15 6 8 - - 0.0
17/12:00pm 9.2 6.3 8.3 94 0.4 N 13 20 7 11 - - 0.0
17/11:30am 8.1 4.6 7.2 94 0.4 N 15 20 8 11 - - 0.0
17/11:00am 8.3 5.3 7.7 96 0.3 NNW 13 17 7 9 - - 0.0
17/10:30am 7.6 4.1 7.3 98 0.1 NNW 15 17 8 9 - - 0.0
17/10:00am 7.1 4.7 7.0 99 0.0 N 9 11 5 6 - - 0.0
17/09:30am 6.8 3.9 6.7 99 0.0 NNE 11 15 6 8 - - 0.0
17/09:00am 6.1 3.5 6.0 99 0.0 NNE 9 15 5 8 - - 4.0
17/08:30am 5.7 4.3 5.6 99 0.0 NNW 2 7 1 4 - - 4.0
17/08:00am 5.6 1.4 5.5 99 0.0 N 17 24 9 13 - - 4.0
17/07:30am 4.7 1.4 4.6 99 0.0 N 11 17 6 9 - - 4.0
17/07:00am 4.3 2.3 4.2 99 0.0 NE 4 9 2 5 - - 4.0
17/06:30am 4.6 2.6 4.5 99 0.0 NNE 4 13 2 7 - - 4.0
17/06:00am 4.5 1.9 4.4 99 0.0 N 7 9 4 5 - - 4.0
17/05:30am 4.8 1.9 4.7 99 0.0 NNE 9 11 5 6 - - 4.0
17/05:00am 4.5 2.5 4.4 99 0.0 N 4 7 2 4 - - 4.0
17/04:30am 4.1 1.6 4.0 99 0.0 NW 6 7 3 4 - - 4.0
17/04:00am 4.2 1.2 4.1 99 0.0 NNW 9 11 5 6 - - 4.0
17/03:30am 4.3 1.3 4.2 99 0.0 NNW 9 11 5 6 - - 4.0
17/03:00am 4.2 1.8 4.1 99 0.0 NNW 6 11 3 6 - - 4.0
17/02:30am 4.4 2.4 4.3 99 0.0 N 4 9 2 5 - - 4.0
17/02:00am 4.9 0.9 4.8 99 0.0 NNW 15 22 8 12 - - 3.8
17/01:30am 5.2 1.6 5.1 99 0.0 NNW 13 15 7 8 - - 3.8
17/01:00am 4.3 1.7 4.0 98 0.1 NNW 7 11 4 6 - - 3.8
17/12:30am 5.2 2.0 5.1 99 0.0 NW 11 15 6 8 - - 3.8
17/12:00am 5.3 2.5 5.2 99 0.0 N 9 13 5 7 - - 3.8
 
Date/Time
EST
Temp
°C
App
Temp
°C
Dew
Point
°C
Rel
Hum
%
Delta-T
°C
Wind Press
QNH
hPa
Press
MSL
hPa
Rain since
9am
mm
Dir  Spd
km/h
Gust
km/h
Spd
kts
Gust
kts
16/11:30pm 5.7 3.4 5.6 99 0.0 W 7 9 4 5 - - 3.8
16/11:00pm 5.8 2.7 5.7 99 0.0 W 11 15 6 8 - - 3.8
16/10:30pm 6.2 3.2 6.1 99 0.0 WNW 11 15 6 8 - - 3.8
16/10:00pm 6.0 1.8 5.7 98 0.1 WSW 17 24 9 13 - - 3.8
16/09:30pm 6.5 1.8 6.2 98 0.1 W 20 26 11 14 - - 3.8
16/09:00pm 6.8 4.3 6.5 98 0.1 NNW 9 17 5 9 - - 3.8
16/08:30pm 6.7 2.6 6.4 98 0.1 WSW 17 24 9 13 - - 3.4
16/08:00pm 6.8 2.8 6.5 98 0.1 W 17 26 9 14 - - 3.4
16/07:30pm 7.1 1.8 6.8 98 0.1 WSW 24 33 13 18 - - 3.2
16/07:00pm 7.3 2.4 7.0 98 0.1 W 22 32 12 17 - - 3.2
16/06:30pm 7.2 1.6 7.1 99 0.0 WSW 26 33 14 18 - - 3.2
16/06:00pm 7.3 1.3 7.0 98 0.1 WSW 28 35 15 19 - - 3.0
16/05:30pm 7.5 3.2 7.2 98 0.1 W 19 26 10 14 - - 3.0
16/05:00pm 7.5 3.1 7.2 98 0.1 W 20 28 11 15 - - 3.0
16/04:30pm 7.9 2.0 7.6 98 0.1 WSW 28 35 15 19 - - 2.6
16/04:00pm 8.2 2.0 7.9 98 0.1 WSW 30 37 16 20 - - 2.6
16/03:30pm 8.8 1.8 8.5 98 0.1 WSW 35 43 19 23 - - 2.4
16/03:00pm 9.3 3.0 8.8 97 0.3 WSW 32 39 17 21 - - 2.2
16/02:30pm 9.6 4.1 9.0 96 0.3 SW 28 39 15 21 - - 2.2
16/02:00pm 9.4 3.0 8.6 95 0.4 SW 32 39 17 21 - - 2.2
16/01:30pm 9.5 3.0 8.9 96 0.3 WSW 33 50 18 27 - - 2.2
16/01:00pm 10.0 4.2 9.4 96 0.3 WSW 30 48 16 26 - - 1.6
16/12:51pm 9.5 3.9 8.7 95 0.4 WSW 28 50 15 27 - - 1.6
16/12:30pm 10.2 5.2 9.4 95 0.4 WSW 26 41 14 22 - - 1.4
16/12:00pm 10.0 5.6 9.1 94 0.5 W 22 33 12 18 - - 1.4
16/11:30am 10.0 5.7 9.4 96 0.3 W 22 35 12 19 - - 1.4
16/11:00am 9.5 6.8 9.0 97 0.3 W 13 30 7 16 - - 1.0
16/10:30am 9.2 5.6 8.4 95 0.4 W 17 32 9 17 - - 0.0
16/10:00am 9.5 6.5 9.2 98 0.2 NW 15 26 8 14 - - 0.0
16/09:30am 9.1 7.1 8.5 96 0.3 W 9 17 5 9 - - 0.0
16/09:00am 8.5 4.8 8.1 97 0.2 W 17 24 9 13 - - 15.4
16/08:30am 8.2 4.4 7.6 96 0.3 WSW 17 20 9 11 - - 14.2
16/08:00am 8.2 3.8 7.6 96 0.3 SW 20 28 11 15 - - 13.8
16/07:30am 7.9 2.8 7.5 97 0.2 SW 24 32 13 17 - - 13.8
16/07:00am 7.9 2.8 7.5 97 0.2 SW 24 28 13 15 - - 13.8
16/06:30am 7.9 3.2 7.6 98 0.1 SSW 22 30 12 16 - - 13.8
16/06:00am 7.9 2.8 7.6 98 0.1 SW 24 32 13 17 - - 13.4
16/05:30am 7.9 3.5 7.6 98 0.1 WSW 20 39 11 21 - - 13.4
16/05:00am 7.6 3.4 7.5 99 0.0 W 19 26 10 14 - - 12.6
16/04:30am 7.3 3.4 7.0 98 0.1 NNW 17 20 9 11 - - 12.4
16/04:00am 7.3 3.8 7.0 98 0.1 N 15 19 8 10 - - 10.2
16/03:30am 7.5 4.4 7.2 98 0.1 NW 13 17 7 9 - - 9.4
16/03:00am 7.6 6.2 7.3 98 0.1 NW 4 11 2 6 - - 8.6

Other formats

Comma delimited format used in spreadsheet applications
http://www.bom.gov.au/fwo/IDT60801/IDT60801.95958.axf

JavaScript Object Notation format (JSON) in row-major order
http://www.bom.gov.au/fwo/IDT60801/IDT60801.95958.json

Data quality

Most of these data are generated automatically and are frequently updated. Quality checks on data are not normally performed. It is possible for incorrect values to appear. Refer to information at About Latest Weather Observations and please check the disclaimer before using these data.